createdAt,value
2023-12-18T00:00:38.228Z,60.65
2023-12-18T00:03:05.798Z,60.70
2023-12-18T00:05:32.961Z,61.08
2023-12-18T00:07:59.703Z,61.28
2023-12-18T00:10:26.427Z,60.53
2023-12-18T00:12:53.094Z,60.85
2023-12-18T00:15:19.840Z,60.58
2023-12-18T00:17:47.139Z,60.78
2023-12-18T00:20:14.180Z,60.82
2023-12-18T00:22:40.844Z,60.90
2023-12-18T00:25:08.099Z,60.81
2023-12-18T00:27:34.944Z,60.63
2023-12-18T00:30:01.832Z,61.11
2023-12-18T00:32:28.675Z,61.44
2023-12-18T00:34:55.548Z,61.39
2023-12-18T00:37:23.390Z,61.11
2023-12-18T00:39:50.082Z,61.30
2023-12-18T00:42:17.259Z,61.61
2023-12-18T00:44:43.975Z,61.11
2023-12-18T00:47:11.095Z,60.85
2023-12-18T00:49:37.875Z,60.63
2023-12-18T00:52:04.902Z,60.64
2023-12-18T00:54:31.671Z,60.59
2023-12-18T00:56:58.378Z,60.75
2023-12-18T00:59:25.049Z,60.97
2023-12-18T01:01:51.809Z,60.83
2023-12-18T01:04:18.676Z,60.45
2023-12-18T01:06:45.576Z,60.78
2023-12-18T01:09:14.220Z,60.61
2023-12-18T01:11:41.100Z,60.85
2023-12-18T01:14:09.834Z,60.65
2023-12-18T01:16:36.673Z,60.49
2023-12-18T01:19:04.082Z,60.65
2023-12-18T01:21:31.412Z,60.46
2023-12-18T01:23:58.178Z,60.61
2023-12-18T01:26:24.843Z,60.75
2023-12-18T01:28:51.508Z,60.90
2023-12-18T01:31:25.521Z,60.30
2023-12-18T01:33:54.833Z,60.01
2023-12-18T01:36:22.991Z,60.03
2023-12-18T01:38:49.924Z,59.66
2023-12-18T01:41:17.411Z,60.14
2023-12-18T01:43:44.699Z,60.26
2023-12-18T01:46:18.772Z,60.00
2023-12-18T01:48:46.914Z,59.97
2023-12-18T01:51:14.358Z,59.54
2023-12-18T01:53:50.076Z,60.36
2023-12-18T01:56:19.428Z,63.68
2023-12-18T01:58:46.674Z,64.11
2023-12-18T02:01:14.550Z,62.81
2023-12-18T02:03:42.203Z,61.90
2023-12-18T02:06:09.195Z,60.76
2023-12-18T02:08:36.387Z,60.28
2023-12-18T02:11:03.485Z,59.70
2023-12-18T02:13:30.395Z,59.52
2023-12-18T02:15:59.081Z,61.41
2023-12-18T02:18:26.566Z,64.43
2023-12-18T02:20:53.625Z,64.01
2023-12-18T02:23:20.335Z,62.79
2023-12-18T02:25:47.187Z,61.20
2023-12-18T02:28:16.580Z,60.72
2023-12-18T02:30:43.608Z,60.65
2023-12-18T02:33:10.974Z,59.86
2023-12-18T02:35:39.223Z,59.59
2023-12-18T02:38:06.009Z,61.18
2023-12-18T02:40:32.694Z,64.30
2023-12-18T02:42:59.421Z,63.85
2023-12-18T02:45:27.337Z,62.28
2023-12-18T02:47:54.108Z,61.58
2023-12-18T02:50:20.820Z,61.12
2023-12-18T02:52:47.616Z,61.24
2023-12-18T02:55:14.599Z,61.13
2023-12-18T02:57:42.078Z,60.74
2023-12-18T03:00:10.058Z,59.93
2023-12-18T03:02:39.241Z,60.23
2023-12-18T03:05:07.083Z,60.09
2023-12-18T03:07:33.833Z,60.29
2023-12-18T03:10:00.579Z,60.55
2023-12-18T03:12:27.447Z,60.20
2023-12-18T03:14:54.191Z,60.11
2023-12-18T03:17:26.926Z,60.08
2023-12-18T03:19:54.002Z,59.87
2023-12-18T03:22:21.476Z,60.05
2023-12-18T03:24:48.161Z,59.96
2023-12-18T03:27:15.094Z,59.98
2023-12-18T03:29:41.953Z,59.64
2023-12-18T03:32:08.646Z,59.83
2023-12-18T03:34:35.614Z,63.15
2023-12-18T03:37:02.449Z,64.04
2023-12-18T03:39:29.498Z,63.35
2023-12-18T03:41:58.340Z,61.85
2023-12-18T03:44:25.198Z,61.40
2023-12-18T03:46:52.306Z,60.97
2023-12-18T03:49:19.273Z,60.25
2023-12-18T03:51:46.080Z,60.05
2023-12-18T03:54:12.869Z,60.14
2023-12-18T03:56:39.550Z,60.12
2023-12-18T03:59:06.226Z,60.03
2023-12-18T04:01:34.508Z,60.31
2023-12-18T04:04:01.407Z,59.99
2023-12-18T04:06:28.304Z,60.27
2023-12-18T04:08:55.699Z,60.09
2023-12-18T04:11:25.222Z,59.85
2023-12-18T04:13:52.667Z,59.87
2023-12-18T04:16:19.329Z,60.15
2023-12-18T04:18:46.269Z,59.65
2023-12-18T04:21:13.365Z,60.41
2023-12-18T04:23:40.190Z,63.87
2023-12-18T04:26:06.911Z,64.19
2023-12-18T04:28:33.618Z,62.77
2023-12-18T04:31:01.232Z,61.73
2023-12-18T04:33:28.246Z,60.68
2023-12-18T04:35:55.023Z,60.60
2023-12-18T04:38:21.686Z,60.14
2023-12-18T04:40:48.399Z,60.37
2023-12-18T04:43:15.084Z,60.64
2023-12-18T04:45:42.005Z,60.44
2023-12-18T04:48:09.630Z,60.00
2023-12-18T04:50:36.430Z,59.70
2023-12-18T04:53:03.208Z,59.82
2023-12-18T04:55:29.915Z,59.73
2023-12-18T04:57:57.940Z,59.82
2023-12-18T05:00:24.781Z,60.24
2023-12-18T05:02:51.631Z,60.41
2023-12-18T05:05:18.330Z,60.21
2023-12-18T05:07:45.008Z,59.91
2023-12-18T05:10:11.709Z,59.60
2023-12-18T05:12:38.511Z,62.38
2023-12-18T05:15:08.817Z,64.56
2023-12-18T05:17:37.628Z,63.65
2023-12-18T05:20:07.468Z,62.44
2023-12-18T05:22:35.357Z,61.39
2023-12-18T05:25:02.060Z,60.83
2023-12-18T05:27:28.926Z,60.43
2023-12-18T05:29:55.998Z,59.90
2023-12-18T05:32:22.745Z,59.93
2023-12-18T05:34:50.603Z,59.99
2023-12-18T05:37:17.524Z,60.19
2023-12-18T05:39:45.540Z,60.34
2023-12-18T05:42:12.680Z,59.59
2023-12-18T05:44:39.386Z,61.68
2023-12-18T05:47:06.112Z,64.48
2023-12-18T05:49:33.020Z,63.62
2023-12-18T05:52:00.215Z,62.22
2023-12-18T05:54:27.082Z,61.68
2023-12-18T05:56:53.827Z,61.14
2023-12-18T05:59:20.750Z,61.06
2023-12-18T06:01:47.585Z,60.35
2023-12-18T06:04:14.467Z,60.06
2023-12-18T06:06:41.432Z,60.31
2023-12-18T06:09:08.393Z,60.18
2023-12-18T06:11:35.175Z,60.38
2023-12-18T06:14:01.865Z,60.21
2023-12-18T06:16:28.572Z,60.09
2023-12-18T06:19:00.843Z,59.72
2023-12-18T06:21:28.006Z,60.05
2023-12-18T06:23:54.786Z,59.76
2023-12-18T06:26:21.461Z,60.07
2023-12-18T06:28:48.160Z,60.25
2023-12-18T06:31:15.012Z,60.33
2023-12-18T06:33:42.675Z,60.49
2023-12-18T06:36:09.545Z,60.18
2023-12-18T06:38:36.414Z,60.71
2023-12-18T06:41:03.200Z,60.68
2023-12-18T06:43:29.934Z,60.32
2023-12-18T06:45:56.759Z,60.26
2023-12-18T06:48:24.955Z,60.43
2023-12-18T06:50:51.782Z,60.22
2023-12-18T06:53:18.473Z,60.68
2023-12-18T06:55:45.178Z,61.04
2023-12-18T06:58:11.910Z,61.40
2023-12-18T07:00:41.221Z,61.34
2023-12-18T07:03:08.696Z,61.64
2023-12-18T07:05:35.924Z,61.60
2023-12-18T07:08:03.228Z,61.21
2023-12-18T07:10:29.943Z,61.48
2023-12-18T07:12:56.892Z,61.98
2023-12-18T07:15:25.881Z,61.36
2023-12-18T07:17:53.804Z,61.19
2023-12-18T07:20:21.107Z,61.06
2023-12-18T07:22:48.155Z,60.60
2023-12-18T07:25:15.279Z,60.96
2023-12-18T07:27:42.578Z,60.36
2023-12-18T07:30:11.012Z,60.66
2023-12-18T07:32:39.786Z,60.34
2023-12-18T07:35:07.477Z,60.72
2023-12-18T07:37:34.291Z,60.33
2023-12-18T07:40:01.408Z,60.88
2023-12-18T07:42:28.435Z,60.96
2023-12-18T07:44:55.459Z,60.71
2023-12-18T07:47:22.724Z,60.93
2023-12-18T07:49:51.142Z,61.30
2023-12-18T07:52:18.797Z,61.01
2023-12-18T07:54:45.890Z,61.23
2023-12-18T07:57:12.982Z,61.28
2023-12-18T07:59:41.503Z,61.13
2023-12-18T08:02:09.547Z,60.48
2023-12-18T08:04:36.805Z,60.88
2023-12-18T08:07:04.250Z,60.67
2023-12-18T08:09:31.180Z,60.25
2023-12-18T08:11:58.466Z,60.34
2023-12-18T08:14:25.394Z,60.42
2023-12-18T08:16:52.125Z,59.99
2023-12-18T08:19:19.506Z,59.77
2023-12-18T08:21:46.691Z,59.96
2023-12-18T08:24:13.585Z,60.60
2023-12-18T08:26:40.606Z,60.93
2023-12-18T08:29:10.051Z,61.00
2023-12-18T08:31:39.152Z,60.75
2023-12-18T08:34:07.084Z,60.73
2023-12-18T08:36:36.270Z,60.60
2023-12-18T08:39:10.244Z,60.75
2023-12-18T08:41:38.579Z,60.33
2023-12-18T08:44:10.035Z,60.55
2023-12-18T08:46:37.252Z,60.39
2023-12-18T08:49:04.207Z,60.29
2023-12-18T08:51:31.157Z,60.31
2023-12-18T08:53:58.096Z,60.83
2023-12-18T08:56:26.130Z,61.12
2023-12-18T08:58:53.990Z,60.24
2023-12-18T09:01:21.105Z,60.40
2023-12-18T09:03:53.482Z,60.51
2023-12-18T09:06:22.133Z,60.49
2023-12-18T09:08:48.935Z,59.87
2023-12-18T09:11:16.267Z,59.63
2023-12-18T09:13:43.212Z,59.81
2023-12-18T09:16:10.037Z,62.96
2023-12-18T09:18:36.833Z,64.33
2023-12-18T09:21:03.893Z,63.20
2023-12-18T09:23:30.689Z,62.10
2023-12-18T09:25:58.221Z,60.88
2023-12-18T09:28:24.939Z,60.09
2023-12-18T09:30:53.023Z,59.72
2023-12-18T09:33:20.111Z,59.72
2023-12-18T09:35:46.967Z,63.24
2023-12-18T09:38:14.341Z,63.59
2023-12-18T09:40:45.850Z,62.40
2023-12-18T09:43:19.856Z,61.02
2023-12-18T09:45:49.671Z,60.86
2023-12-18T09:48:19.986Z,60.74
2023-12-18T09:50:47.569Z,60.08
2023-12-18T09:53:17.746Z,60.19
2023-12-18T09:55:46.861Z,63.35
2023-12-18T09:58:15.993Z,63.69
2023-12-18T10:00:43.433Z,62.54
2023-12-18T10:03:10.797Z,61.07
2023-12-18T10:05:37.673Z,60.19
2023-12-18T10:08:05.482Z,60.14
2023-12-18T10:10:32.320Z,59.83
2023-12-18T10:12:59.158Z,59.65
2023-12-18T10:15:26.822Z,59.33
2023-12-18T10:17:54.977Z,61.97
2023-12-18T10:20:21.800Z,64.15
2023-12-18T10:22:48.478Z,63.54
2023-12-18T10:25:15.367Z,62.20
2023-12-18T10:27:44.053Z,61.26
2023-12-18T10:30:12.132Z,60.99
2023-12-18T10:32:42.025Z,60.81
2023-12-18T10:35:09.714Z,60.09
2023-12-18T10:37:38.425Z,59.78
2023-12-18T10:40:12.905Z,60.05
2023-12-18T10:42:43.311Z,60.21
2023-12-18T10:45:10.475Z,60.38
2023-12-18T10:47:38.058Z,60.76
2023-12-18T10:50:06.685Z,61.46
2023-12-18T10:52:34.802Z,61.43
2023-12-18T10:55:06.105Z,61.37
2023-12-18T10:57:38.274Z,61.87
2023-12-18T11:00:09.642Z,62.58
2023-12-18T11:02:37.680Z,63.16
2023-12-18T11:05:07.304Z,62.95
2023-12-18T11:07:34.681Z,63.80
2023-12-18T11:10:01.843Z,63.83
2023-12-18T11:12:30.194Z,63.80
2023-12-18T11:15:04.264Z,64.04
2023-12-18T11:18:06.646Z,63.82
2023-12-18T11:20:38.390Z,64.19
2023-12-18T11:23:06.549Z,64.39
2023-12-18T11:25:36.421Z,64.41
2023-12-18T11:28:07.262Z,64.66
2023-12-18T11:30:35.896Z,64.14
2023-12-18T11:33:07.539Z,64.23
2023-12-18T11:35:37.094Z,64.19
2023-12-18T11:38:15.109Z,64.20
2023-12-18T11:41:00.992Z,64.35
2023-12-18T11:43:39.828Z,64.28
2023-12-18T11:46:17.232Z,64.18
2023-12-18T11:48:47.706Z,64.42
2023-12-18T11:51:17.037Z,63.92
2023-12-18T11:53:44.117Z,64.27
2023-12-18T11:56:12.990Z,64.65
2023-12-18T11:58:45.194Z,64.76
2023-12-18T12:01:13.952Z,64.46
2023-12-18T12:03:41.878Z,64.25
2023-12-18T12:06:09.856Z,64.18
2023-12-18T12:09:03.377Z,64.54
2023-12-18T12:11:30.421Z,64.82
2023-12-18T12:13:57.366Z,64.71
2023-12-18T12:16:25.049Z,64.59
2023-12-18T12:18:52.693Z,64.23
2023-12-18T12:21:20.012Z,64.06
2023-12-18T12:23:50.950Z,64.29
2023-12-18T12:26:19.678Z,64.68
2023-12-18T12:28:49.217Z,64.70
2023-12-18T12:31:20.848Z,64.62
2023-12-18T12:33:50.177Z,64.68
2023-12-18T12:36:20.597Z,65.33
2023-12-18T12:38:47.474Z,64.97
2023-12-18T12:41:15.634Z,65.04
2023-12-18T12:43:44.430Z,65.75
2023-12-18T12:46:15.533Z,66.43
2023-12-18T12:48:47.007Z,66.75
2023-12-18T12:51:15.688Z,67.32
2023-12-18T12:53:43.237Z,67.08
2023-12-18T12:56:12.130Z,66.77
2023-12-18T12:58:39.051Z,67.22
2023-12-18T13:01:08.533Z,67.47
2023-12-18T13:03:38.868Z,67.24
2023-12-18T13:06:05.947Z,66.98
2023-12-18T13:08:34.701Z,66.96
2023-12-18T13:11:05.024Z,67.11
2023-12-18T13:13:32.313Z,66.82
2023-12-18T13:16:00.917Z,67.35
2023-12-18T13:18:28.826Z,68.05
2023-12-18T13:20:55.634Z,67.82
2023-12-18T13:23:23.815Z,67.46
2023-12-18T13:25:51.493Z,66.72
2023-12-18T13:28:18.228Z,66.60
2023-12-18T13:30:45.216Z,66.74
2023-12-18T13:33:12.224Z,66.77
2023-12-18T13:35:39.350Z,66.70
2023-12-18T13:38:06.191Z,66.68
2023-12-18T13:40:33.079Z,66.72
2023-12-18T13:42:59.840Z,66.71
2023-12-18T13:45:26.860Z,66.73
2023-12-18T13:47:55.551Z,66.41
2023-12-18T13:50:23.356Z,66.18
2023-12-18T13:52:50.155Z,66.45
2023-12-18T13:55:17.208Z,66.66
2023-12-18T13:57:48.812Z,66.62
2023-12-18T14:00:22.868Z,66.57
2023-12-18T14:02:53.774Z,66.52
2023-12-18T14:05:22.127Z,66.37
2023-12-18T14:07:48.939Z,66.20
2023-12-18T14:10:16.109Z,66.56
2023-12-18T14:12:43.178Z,66.46
2023-12-18T14:15:12.448Z,66.16
2023-12-18T14:17:39.532Z,66.47
2023-12-18T14:20:08.815Z,66.32
2023-12-18T14:22:35.611Z,66.28
2023-12-18T14:25:03.941Z,66.47
2023-12-18T14:27:33.679Z,65.77
2023-12-18T14:30:01.129Z,65.68
2023-12-18T14:32:28.178Z,65.86
2023-12-18T14:34:55.182Z,65.31
2023-12-18T14:37:22.303Z,64.84
2023-12-18T14:39:49.058Z,64.98
2023-12-18T14:42:15.939Z,65.14
2023-12-18T14:44:42.674Z,65.53
2023-12-18T14:47:10.303Z,65.80
2023-12-18T14:49:37.127Z,65.79
2023-12-18T14:52:04.416Z,65.37
2023-12-18T14:54:32.505Z,65.26
2023-12-18T14:56:59.603Z,65.31
2023-12-18T14:59:26.352Z,65.56
2023-12-18T15:01:55.945Z,65.25
2023-12-18T15:04:29.519Z,65.43
2023-12-18T15:06:58.925Z,65.09
2023-12-18T15:09:26.556Z,64.78
2023-12-18T15:11:53.409Z,64.73
2023-12-18T15:14:20.632Z,64.84
2023-12-18T15:16:48.671Z,65.30
2023-12-18T15:19:16.076Z,65.25
2023-12-18T15:21:43.030Z,65.18
2023-12-18T15:24:10.857Z,65.36
2023-12-18T15:26:39.301Z,65.37
2023-12-18T15:29:06.823Z,65.18
2023-12-18T15:31:33.772Z,65.25
2023-12-18T15:34:03.538Z,64.60
2023-12-18T15:36:33.196Z,64.69
2023-12-18T15:39:00.184Z,65.02
2023-12-18T15:41:27.706Z,65.00
2023-12-18T15:43:54.488Z,65.71
2023-12-18T15:46:21.291Z,65.69
2023-12-18T15:48:55.341Z,65.38
2023-12-18T15:51:23.250Z,65.01
2023-12-18T15:53:50.287Z,64.95
2023-12-18T15:56:17.058Z,65.26
2023-12-18T15:58:44.535Z,65.50
2023-12-18T16:01:13.212Z,65.82
2023-12-18T16:03:41.478Z,65.34
2023-12-18T16:06:08.314Z,65.23
2023-12-18T16:08:35.426Z,65.18
2023-12-18T16:11:02.859Z,65.08
2023-12-18T16:13:29.647Z,65.28
2023-12-18T16:15:56.559Z,65.00
2023-12-18T16:18:23.608Z,65.22
2023-12-18T16:20:50.607Z,64.93
2023-12-18T16:23:20.225Z,65.17
2023-12-18T16:25:47.110Z,65.02
2023-12-18T16:28:13.845Z,64.71
2023-12-18T16:30:45.178Z,65.04
2023-12-18T16:33:20.004Z,65.11
2023-12-18T16:35:47.018Z,64.69
2023-12-18T16:38:13.875Z,64.83
2023-12-18T16:40:40.650Z,65.01
2023-12-18T16:43:07.541Z,65.03
2023-12-18T16:45:34.481Z,64.76
2023-12-18T16:48:01.538Z,64.93
2023-12-18T16:50:28.360Z,64.96
2023-12-18T16:52:55.106Z,65.44
2023-12-18T16:55:21.857Z,65.00
2023-12-18T16:57:51.093Z,64.71
2023-12-18T17:00:19.665Z,64.71
2023-12-18T17:02:46.688Z,64.83
2023-12-18T17:05:13.582Z,65.46
2023-12-18T17:07:40.802Z,65.23
2023-12-18T17:10:08.087Z,64.77
2023-12-18T17:12:34.903Z,65.19
2023-12-18T17:15:01.795Z,64.51
2023-12-18T17:17:30.674Z,64.56
2023-12-18T17:19:57.749Z,64.56
2023-12-18T17:22:24.698Z,64.45
2023-12-18T17:24:53.727Z,64.27
2023-12-18T17:27:20.855Z,64.81
2023-12-18T17:29:50.137Z,65.18
2023-12-18T17:32:28.134Z,64.48
2023-12-18T17:35:00.746Z,64.57
2023-12-18T17:37:27.985Z,64.66
2023-12-18T17:39:55.197Z,64.95
2023-12-18T17:42:22.351Z,64.58
2023-12-18T17:44:49.089Z,64.42
2023-12-18T17:47:15.804Z,64.74
2023-12-18T17:49:43.726Z,64.23
2023-12-18T17:52:11.124Z,64.17
2023-12-18T17:54:38.470Z,63.99
2023-12-18T17:57:05.339Z,64.07
2023-12-18T17:59:32.129Z,64.13
2023-12-18T18:01:58.954Z,63.50
2023-12-18T18:04:25.820Z,63.14
2023-12-18T18:06:53.148Z,63.63
2023-12-18T18:09:19.965Z,64.41
2023-12-18T18:11:46.729Z,64.52
2023-12-18T18:14:13.563Z,64.22
2023-12-18T18:16:40.378Z,64.10
2023-12-18T18:19:09.130Z,64.36
2023-12-18T18:21:36.633Z,64.68
2023-12-18T18:24:04.061Z,63.97
2023-12-18T18:26:30.908Z,64.32
2023-12-18T18:28:57.804Z,64.21
2023-12-18T18:31:25.844Z,63.94
2023-12-18T18:33:53.303Z,64.37
2023-12-18T18:36:22.663Z,64.48
2023-12-18T18:38:49.576Z,64.07
2023-12-18T18:41:16.314Z,64.10
2023-12-18T18:43:43.135Z,64.23
2023-12-18T18:46:14.334Z,63.83
2023-12-18T18:48:42.298Z,63.87
2023-12-18T18:51:09.598Z,64.23
2023-12-18T18:53:36.778Z,63.93
2023-12-18T18:56:07.162Z,63.25
2023-12-18T18:58:37.289Z,63.53
2023-12-18T19:01:04.497Z,63.87
2023-12-18T19:03:31.690Z,64.12
2023-12-18T19:05:58.693Z,63.90
2023-12-18T19:08:26.701Z,64.44
2023-12-18T19:10:54.211Z,64.30
2023-12-18T19:13:22.661Z,64.40
2023-12-18T19:15:51.624Z,64.15
2023-12-18T19:18:19.887Z,63.78
2023-12-18T19:20:49.660Z,63.72
2023-12-18T19:23:16.593Z,63.47
2023-12-18T19:25:45.375Z,64.02
2023-12-18T19:28:16.225Z,63.89
2023-12-18T19:30:46.362Z,63.81
2023-12-18T19:33:13.503Z,63.91
2023-12-18T19:35:47.135Z,63.48
2023-12-18T19:38:13.981Z,64.05
2023-12-18T19:40:41.209Z,63.84
2023-12-18T19:43:09.679Z,63.32
2023-12-18T19:45:37.921Z,63.01
2023-12-18T19:48:05.346Z,63.95
2023-12-18T19:50:32.862Z,63.21
2023-12-18T19:52:59.767Z,63.01
2023-12-18T19:55:26.654Z,63.13
2023-12-18T19:57:53.501Z,63.15
2023-12-18T20:00:23.615Z,63.35
2023-12-18T20:02:50.311Z,63.45
2023-12-18T20:05:17.350Z,63.26
2023-12-18T20:07:44.208Z,63.06
2023-12-18T20:10:11.944Z,62.87
2023-12-18T20:12:38.750Z,62.61
2023-12-18T20:15:06.457Z,62.65
2023-12-18T20:17:34.417Z,62.63
2023-12-18T20:20:01.380Z,62.90
2023-12-18T20:22:28.165Z,63.57
2023-12-18T20:24:55.372Z,63.32
2023-12-18T20:27:23.355Z,63.17
2023-12-18T20:29:50.275Z,62.89
2023-12-18T20:32:17.182Z,61.94
2023-12-18T20:34:44.422Z,62.68
2023-12-18T20:37:11.584Z,62.72
2023-12-18T20:39:38.349Z,63.39
2023-12-18T20:42:05.719Z,63.54
2023-12-18T20:44:32.524Z,63.75
2023-12-18T20:46:59.246Z,63.95
2023-12-18T20:49:27.642Z,64.12
2023-12-18T20:51:56.482Z,64.61
2023-12-18T20:54:23.914Z,64.65
2023-12-18T20:56:50.898Z,65.42
2023-12-18T20:59:17.626Z,65.41
2023-12-18T21:01:44.922Z,65.40
2023-12-18T21:04:11.989Z,66.20
2023-12-18T21:06:39.593Z,66.02
2023-12-18T21:09:06.402Z,65.65
2023-12-18T21:11:34.550Z,66.04
2023-12-18T21:14:01.306Z,66.09
2023-12-18T21:16:28.012Z,65.59
2023-12-18T21:18:54.853Z,65.63
2023-12-18T21:21:22.049Z,65.32
2023-12-18T21:23:48.944Z,65.44
2023-12-18T21:26:16.470Z,65.73
2023-12-18T21:28:44.292Z,65.40
2023-12-18T21:31:11.836Z,65.57
2023-12-18T21:33:39.502Z,65.54
2023-12-18T21:36:13.972Z,65.57
2023-12-18T21:38:40.813Z,66.01
2023-12-18T21:41:07.697Z,65.87
2023-12-18T21:43:34.453Z,65.87
2023-12-18T21:46:01.210Z,65.50
2023-12-18T21:48:28.267Z,65.57
2023-12-18T21:50:55.220Z,65.44
2023-12-18T21:53:23.990Z,65.94
2023-12-18T21:55:50.879Z,66.13
2023-12-18T21:58:17.572Z,66.16
2023-12-18T22:00:44.467Z,65.89
2023-12-18T22:03:11.547Z,66.06
2023-12-18T22:05:38.363Z,65.87
2023-12-18T22:08:06.506Z,65.34
2023-12-18T22:10:33.148Z,65.98
2023-12-18T22:13:00.069Z,66.01
2023-12-18T22:15:26.942Z,66.11
2023-12-18T22:17:53.786Z,66.13
2023-12-18T22:20:21.448Z,66.17
2023-12-18T22:22:49.539Z,66.60
2023-12-18T22:25:16.341Z,67.10
2023-12-18T22:27:43.432Z,67.03
2023-12-18T22:30:11.709Z,67.18
2023-12-18T22:32:39.244Z,66.89
2023-12-18T22:35:06.998Z,66.83
2023-12-18T22:37:34.229Z,66.45
2023-12-18T22:40:01.278Z,66.77
2023-12-18T22:42:28.504Z,66.87
2023-12-18T22:44:55.322Z,66.62
2023-12-18T22:47:24.777Z,66.48
2023-12-18T22:49:51.637Z,66.35
2023-12-18T22:52:18.626Z,65.67
2023-12-18T22:54:45.590Z,65.70
2023-12-18T22:57:12.436Z,66.59
2023-12-18T22:59:39.147Z,66.60
2023-12-18T23:02:05.966Z,66.80
2023-12-18T23:04:32.867Z,66.62
2023-12-18T23:06:59.902Z,66.54
2023-12-18T23:09:26.739Z,66.37
2023-12-18T23:11:54.668Z,66.21
2023-12-18T23:14:21.445Z,66.19
2023-12-18T23:16:48.132Z,66.32
2023-12-18T23:19:14.868Z,66.97
2023-12-18T23:21:42.137Z,66.98
2023-12-18T23:24:10.888Z,67.31
2023-12-18T23:26:38.276Z,66.60
2023-12-18T23:29:07.142Z,66.55
2023-12-18T23:31:35.595Z,67.27
2023-12-18T23:34:02.663Z,66.88
2023-12-18T23:36:29.497Z,66.91
2023-12-18T23:38:56.237Z,66.51
2023-12-18T23:41:22.982Z,66.70
2023-12-18T23:43:49.693Z,66.46
2023-12-18T23:46:16.545Z,66.87
2023-12-18T23:48:43.517Z,67.12
2023-12-18T23:51:10.295Z,67.66
2023-12-18T23:53:37.271Z,67.37
2023-12-18T23:56:06.440Z,67.77
2023-12-18T23:58:33.161Z,67.92
